sensor_id;sensor_type;location;lat;lon;timestamp;pressure;altitude;pressure_sealevel;temperature;humidity
19112;BME280;9688;51.906;8.376;2023-01-29T00:00:16;102140.91;;;0.64;83.63
19112;BME280;9688;51.906;8.376;2023-01-29T00:03:03;102133.03;;;0.63;83.66
19112;BME280;9688;51.906;8.376;2023-01-29T00:05:48;102129.47;;;0.59;83.65
19112;BME280;9688;51.906;8.376;2023-01-29T00:08:34;102117.19;;;0.54;83.56
19112;BME280;9688;51.906;8.376;2023-01-29T00:11:19;102124.06;;;0.52;83.83
19112;BME280;9688;51.906;8.376;2023-01-29T00:14:05;102119.78;;;0.54;83.75
19112;BME280;9688;51.906;8.376;2023-01-29T00:16:51;102113.72;;;0.55;84.00
19112;BME280;9688;51.906;8.376;2023-01-29T00:19:38;102116.25;;;0.52;83.88
19112;BME280;9688;51.906;8.376;2023-01-29T00:22:24;102112.84;;;0.53;83.93
19112;BME280;9688;51.906;8.376;2023-01-29T00:25:10;102111.13;;;0.55;83.83
19112;BME280;9688;51.906;8.376;2023-01-29T00:27:56;102117.22;;;0.55;83.76
19112;BME280;9688;51.906;8.376;2023-01-29T00:30:42;102115.47;;;0.54;83.78
19112;BME280;9688;51.906;8.376;2023-01-29T00:33:27;102111.09;;;0.53;83.84
19112;BME280;9688;51.906;8.376;2023-01-29T00:36:17;102111.97;;;0.54;84.06
19112;BME280;9688;51.906;8.376;2023-01-29T00:39:03;102109.47;;;0.57;84.06
19112;BME280;9688;51.906;8.376;2023-01-29T00:41:53;102115.53;;;0.57;83.69
19112;BME280;9688;51.906;8.376;2023-01-29T00:44:56;102120.72;;;0.56;83.91
19112;BME280;9688;51.906;8.376;2023-01-29T00:47:42;102119.00;;;0.56;84.02
19112;BME280;9688;51.906;8.376;2023-01-29T00:50:28;102114.59;;;0.54;83.99
19112;BME280;9688;51.906;8.376;2023-01-29T00:53:15;102121.31;;;0.47;84.22
19112;BME280;9688;51.906;8.376;2023-01-29T00:56:01;102114.44;;;0.48;84.08
19112;BME280;9688;51.906;8.376;2023-01-29T00:58:46;102111.94;;;0.52;84.15
19112;BME280;9688;51.906;8.376;2023-01-29T01:01:32;102109.31;;;0.51;83.91
19112;BME280;9688;51.906;8.376;2023-01-29T01:04:35;102111.06;;;0.52;84.25
19112;BME280;9688;51.906;8.376;2023-01-29T01:07:22;102114.53;;;0.52;84.03
19112;BME280;9688;51.906;8.376;2023-01-29T01:10:12;102112.72;;;0.50;83.95
19112;BME280;9688;51.906;8.376;2023-01-29T01:13:05;102105.78;;;0.49;83.92
19112;BME280;9688;51.906;8.376;2023-01-29T01:15:51;102104.84;;;0.47;84.11
19112;BME280;9688;51.906;8.376;2023-01-29T01:18:37;102105.56;;;0.41;84.52
19112;BME280;9688;51.906;8.376;2023-01-29T01:21:22;102102.06;;;0.39;84.00
19112;BME280;9688;51.906;8.376;2023-01-29T01:24:08;102098.59;;;0.40;84.85
19112;BME280;9688;51.906;8.376;2023-01-29T01:26:54;102090.75;;;0.38;84.71
19112;BME280;9688;51.906;8.376;2023-01-29T01:29:42;102092.47;;;0.38;84.52
19112;BME280;9688;51.906;8.376;2023-01-29T01:32:31;102076.78;;;0.35;84.59
19112;BME280;9688;51.906;8.376;2023-01-29T01:35:18;102062.78;;;0.30;84.94
19112;BME280;9688;51.906;8.376;2023-01-29T01:38:08;102059.94;;;0.20;84.85
19112;BME280;9688;51.906;8.376;2023-01-29T01:40:57;102058.78;;;0.11;85.12
19112;BME280;9688;51.906;8.376;2023-01-29T01:43:49;102069.91;;;0.05;85.19
19112;BME280;9688;51.906;8.376;2023-01-29T01:46:36;102065.59;;;0.06;85.29
19112;BME280;9688;51.906;8.376;2023-01-29T01:49:22;102064.69;;;0.04;85.28
19112;BME280;9688;51.906;8.376;2023-01-29T01:52:08;102064.63;;;0.02;85.06
19112;BME280;9688;51.906;8.376;2023-01-29T01:54:54;102061.94;;;-0.01;85.65
19112;BME280;9688;51.906;8.376;2023-01-29T01:57:42;102067.09;;;-0.03;85.22
19112;BME280;9688;51.906;8.376;2023-01-29T02:00:32;102067.91;;;-0.05;86.05
19112;BME280;9688;51.906;8.376;2023-01-29T02:03:19;102067.03;;;-0.04;85.92
19112;BME280;9688;51.906;8.376;2023-01-29T02:06:23;102075.72;;;-0.04;85.53
19112;BME280;9688;51.906;8.376;2023-01-29T02:09:31;102081.09;;;0.03;85.79
19112;BME280;9688;51.906;8.376;2023-01-29T02:12:20;102083.91;;;0.10;85.25
19112;BME280;9688;51.906;8.376;2023-01-29T02:15:06;102084.88;;;0.14;85.55
19112;BME280;9688;51.906;8.376;2023-01-29T02:17:54;102090.22;;;0.18;85.10
19112;BME280;9688;51.906;8.376;2023-01-29T02:20:41;102092.00;;;0.21;85.32
19112;BME280;9688;51.906;8.376;2023-01-29T02:26:46;102090.38;;;0.25;85.58
19112;BME280;9688;51.906;8.376;2023-01-29T02:29:44;102088.63;;;0.24;85.30
19112;BME280;9688;51.906;8.376;2023-01-29T02:32:36;102087.78;;;0.25;85.46
19112;BME280;9688;51.906;8.376;2023-01-29T02:35:27;102093.91;;;0.27;85.20
19112;BME280;9688;51.906;8.376;2023-01-29T02:38:20;102105.22;;;0.29;85.66
19112;BME280;9688;51.906;8.376;2023-01-29T02:41:13;102094.94;;;0.33;85.29
19112;BME280;9688;51.906;8.376;2023-01-29T02:44:03;102103.66;;;0.35;85.24
19112;BME280;9688;51.906;8.376;2023-01-29T02:46:56;102113.38;;;0.41;85.22
19112;BME280;9688;51.906;8.376;2023-01-29T02:49:46;102112.69;;;0.48;85.07
19112;BME280;9688;51.906;8.376;2023-01-29T02:52:37;102106.72;;;0.52;84.97
19112;BME280;9688;51.906;8.376;2023-01-29T02:55:30;102112.13;;;0.58;84.62
19112;BME280;9688;51.906;8.376;2023-01-29T02:58:25;102096.59;;;0.61;84.76
19112;BME280;9688;51.906;8.376;2023-01-29T03:01:16;102099.22;;;0.63;85.04
19112;BME280;9688;51.906;8.376;2023-01-29T03:04:07;102096.59;;;0.61;84.79
19112;BME280;9688;51.906;8.376;2023-01-29T03:06:57;102102.44;;;0.54;84.76
19112;BME280;9688;51.906;8.376;2023-01-29T03:09:48;102097.13;;;0.50;84.81
19112;BME280;9688;51.906;8.376;2023-01-29T03:12:37;102092.75;;;0.49;85.03
19112;BME280;9688;51.906;8.376;2023-01-29T03:15:27;102090.16;;;0.49;85.17
19112;BME280;9688;51.906;8.376;2023-01-29T03:18:16;102090.09;;;0.46;84.56
19112;BME280;9688;51.906;8.376;2023-01-29T03:21:09;102099.56;;;0.43;85.01
19112;BME280;9688;51.906;8.376;2023-01-29T03:24:12;102096.25;;;0.49;84.91
19112;BME280;9688;51.906;8.376;2023-01-29T03:27:19;102093.72;;;0.52;84.76
19112;BME280;9688;51.906;8.376;2023-01-29T03:30:26;102089.38;;;0.51;84.69
19112;BME280;9688;51.906;8.376;2023-01-29T03:33:34;102094.34;;;0.43;84.87
19112;BME280;9688;51.906;8.376;2023-01-29T03:36:28;102094.25;;;0.39;85.06
19112;BME280;9688;51.906;8.376;2023-01-29T03:39:23;102089.13;;;0.42;85.03
19112;BME280;9688;51.906;8.376;2023-01-29T03:42:16;102077.94;;;0.46;85.18
19112;BME280;9688;51.906;8.376;2023-01-29T03:45:05;102084.88;;;0.46;85.11
19112;BME280;9688;51.906;8.376;2023-01-29T03:48:04;102070.16;;;0.46;84.90
19112;BME280;9688;51.906;8.376;2023-01-29T03:50:56;102069.28;;;0.46;84.87
19112;BME280;9688;51.906;8.376;2023-01-29T03:53:49;102084.97;;;0.49;84.62
19112;BME280;9688;51.906;8.376;2023-01-29T03:56:45;102079.59;;;0.42;84.78
19112;BME280;9688;51.906;8.376;2023-01-29T03:59:41;102069.28;;;0.47;84.84
19112;BME280;9688;51.906;8.376;2023-01-29T04:02:37;102065.88;;;0.48;84.64
19112;BME280;9688;51.906;8.376;2023-01-29T04:05:30;102068.63;;;0.54;84.86
19112;BME280;9688;51.906;8.376;2023-01-29T04:08:21;102070.44;;;0.57;84.43
19112;BME280;9688;51.906;8.376;2023-01-29T04:11:13;102072.09;;;0.55;84.32
19112;BME280;9688;51.906;8.376;2023-01-29T04:14:00;102067.63;;;0.49;84.52
19112;BME280;9688;51.906;8.376;2023-01-29T04:16:50;102065.88;;;0.48;84.54
19112;BME280;9688;51.906;8.376;2023-01-29T04:19:36;102057.28;;;0.51;84.61
19112;BME280;9688;51.906;8.376;2023-01-29T04:22:26;102051.13;;;0.49;84.50
19112;BME280;9688;51.906;8.376;2023-01-29T04:25:15;102038.09;;;0.47;84.42
19112;BME280;9688;51.906;8.376;2023-01-29T04:28:06;102027.44;;;0.38;84.84
19112;BME280;9688;51.906;8.376;2023-01-29T04:30:58;102022.13;;;0.33;85.04
19112;BME280;9688;51.906;8.376;2023-01-29T04:33:52;102004.63;;;0.28;84.77
19112;BME280;9688;51.906;8.376;2023-01-29T04:36:51;102002.03;;;0.28;84.88
19112;BME280;9688;51.906;8.376;2023-01-29T04:39:46;102003.75;;;0.26;85.22
19112;BME280;9688;51.906;8.376;2023-01-29T04:42:37;101989.81;;;0.24;84.88
19112;BME280;9688;51.906;8.376;2023-01-29T04:45:35;101974.06;;;0.17;84.99
19112;BME280;9688;51.906;8.376;2023-01-29T04:48:28;101966.09;;;0.11;85.18
19112;BME280;9688;51.906;8.376;2023-01-29T04:51:19;101965.91;;;0.04;85.68
19112;BME280;9688;51.906;8.376;2023-01-29T04:54:11;101965.03;;;0.03;85.66
19112;BME280;9688;51.906;8.376;2023-01-29T04:57:05;101949.41;;;0.03;85.39
19112;BME280;9688;51.906;8.376;2023-01-29T04:59:58;101944.25;;;0.05;85.66
19112;BME280;9688;51.906;8.376;2023-01-29T05:02:55;101944.25;;;0.05;85.53
19112;BME280;9688;51.906;8.376;2023-01-29T05:05:44;101943.44;;;0.07;85.48
19112;BME280;9688;51.906;8.376;2023-01-29T05:08:31;101954.94;;;0.15;85.66
19112;BME280;9688;51.906;8.376;2023-01-29T05:11:19;101957.72;;;0.23;85.38
19112;BME280;9688;51.906;8.376;2023-01-29T05:14:07;101961.34;;;0.30;85.22
19112;BME280;9688;51.906;8.376;2023-01-29T05:16:56;101965.09;;;0.39;85.74
19112;BME280;9688;51.906;8.376;2023-01-29T05:19:46;101970.44;;;0.47;85.53
19112;BME280;9688;51.906;8.376;2023-01-29T05:22:31;101968.91;;;0.54;85.52
19112;BME280;9688;51.906;8.376;2023-01-29T05:25:22;101980.31;;;0.60;85.22
19112;BME280;9688;51.906;8.376;2023-01-29T05:28:08;101980.47;;;0.66;84.68
19112;BME280;9688;51.906;8.376;2023-01-29T05:30:59;101990.19;;;0.74;84.83
19112;BME280;9688;51.906;8.376;2023-01-29T05:33:45;101986.84;;;0.79;84.67
19112;BME280;9688;51.906;8.376;2023-01-29T05:36:32;101989.56;;;0.84;84.61
19112;BME280;9688;51.906;8.376;2023-01-29T05:39:18;101997.38;;;0.84;84.54
19112;BME280;9688;51.906;8.376;2023-01-29T05:42:03;101994.78;;;0.84;84.64
19112;BME280;9688;51.906;8.376;2023-01-29T05:44:49;102000.91;;;0.86;84.46
19112;BME280;9688;51.906;8.376;2023-01-29T05:47:34;101997.56;;;0.92;84.63
19112;BME280;9688;51.906;8.376;2023-01-29T05:50:20;101996.72;;;0.94;84.46
19112;BME280;9688;51.906;8.376;2023-01-29T05:53:07;101999.38;;;0.96;84.36
19112;BME280;9688;51.906;8.376;2023-01-29T05:55:53;101994.25;;;0.99;84.58
19112;BME280;9688;51.906;8.376;2023-01-29T05:58:40;102002.00;;;0.96;84.50
19112;BME280;9688;51.906;8.376;2023-01-29T06:01:25;102001.19;;;0.98;84.56
19112;BME280;9688;51.906;8.376;2023-01-29T06:04:11;102004.72;;;1.00;84.59
19112;BME280;9688;51.906;8.376;2023-01-29T06:06:56;102011.72;;;1.03;84.51
19112;BME280;9688;51.906;8.376;2023-01-29T06:09:43;102017.81;;;1.05;84.54
19112;BME280;9688;51.906;8.376;2023-01-29T06:12:30;102019.59;;;1.06;84.26
19112;BME280;9688;51.906;8.376;2023-01-29T06:15:15;102018.63;;;1.02;84.66
19112;BME280;9688;51.906;8.376;2023-01-29T06:18:03;102008.19;;;1.02;84.60
19112;BME280;9688;51.906;8.376;2023-01-29T06:20:48;102001.31;;;1.04;84.73
19112;BME280;9688;51.906;8.376;2023-01-29T06:23:34;101998.72;;;1.04;84.75
19112;BME280;9688;51.906;8.376;2023-01-29T06:26:21;101994.34;;;1.03;85.10
19112;BME280;9688;51.906;8.376;2023-01-29T06:29:07;102010.06;;;1.08;85.17
19112;BME280;9688;51.906;8.376;2023-01-29T06:31:52;102020.53;;;1.09;85.19
19112;BME280;9688;51.906;8.376;2023-01-29T06:34:37;102017.06;;;1.10;84.67
19112;BME280;9688;51.906;8.376;2023-01-29T06:37:23;102022.28;;;1.10;85.09
19112;BME280;9688;51.906;8.376;2023-01-29T06:40:09;102017.00;;;1.07;85.12
19112;BME280;9688;51.906;8.376;2023-01-29T06:43:00;102013.50;;;1.05;84.88
19112;BME280;9688;51.906;8.376;2023-01-29T06:45:47;102020.47;;;1.06;85.13
19112;BME280;9688;51.906;8.376;2023-01-29T06:48:33;102021.34;;;1.07;85.13
19112;BME280;9688;51.906;8.376;2023-01-29T06:51:20;102026.66;;;1.11;84.96
19112;BME280;9688;51.906;8.376;2023-01-29T06:54:06;102026.75;;;1.16;84.89
19112;BME280;9688;51.906;8.376;2023-01-29T06:56:53;102029.41;;;1.18;84.74
19112;BME280;9688;51.906;8.376;2023-01-29T06:59:44;102016.44;;;1.21;84.83
19112;BME280;9688;51.906;8.376;2023-01-29T07:02:31;102027.00;;;1.27;84.80
19112;BME280;9688;51.906;8.376;2023-01-29T07:05:17;102015.75;;;1.29;84.93
19112;BME280;9688;51.906;8.376;2023-01-29T07:08:03;101998.47;;;1.33;84.78
19112;BME280;9688;51.906;8.376;2023-01-29T07:10:48;102010.69;;;1.36;84.73
19112;BME280;9688;51.906;8.376;2023-01-29T07:13:34;102012.41;;;1.35;84.48
19112;BME280;9688;51.906;8.376;2023-01-29T07:16:21;101982.03;;;1.36;84.76
19112;BME280;9688;51.906;8.376;2023-01-29T07:19:07;102006.38;;;1.36;84.55
19112;BME280;9688;51.906;8.376;2023-01-29T07:21:53;102004.53;;;1.32;84.58
19112;BME280;9688;51.906;8.376;2023-01-29T07:24:39;102007.94;;;1.29;85.02
19112;BME280;9688;51.906;8.376;2023-01-29T07:27:26;102008.00;;;1.32;84.88
19112;BME280;9688;51.906;8.376;2023-01-29T07:30:13;102016.75;;;1.34;85.16
19112;BME280;9688;51.906;8.376;2023-01-29T07:33:05;102017.75;;;1.40;85.05
19112;BME280;9688;51.906;8.376;2023-01-29T07:35:51;102021.31;;;1.45;85.10
19112;BME280;9688;51.906;8.376;2023-01-29T07:38:37;102021.34;;;1.46;84.90
19112;BME280;9688;51.906;8.376;2023-01-29T07:41:22;102010.03;;;1.44;84.83
19112;BME280;9688;51.906;8.376;2023-01-29T07:44:08;102005.66;;;1.43;84.52
19112;BME280;9688;51.906;8.376;2023-01-29T07:46:53;101995.22;;;1.43;84.60
19112;BME280;9688;51.906;8.376;2023-01-29T07:49:40;101988.28;;;1.42;84.82
19112;BME280;9688;51.906;8.376;2023-01-29T07:52:29;101995.28;;;1.45;85.00
19112;BME280;9688;51.906;8.376;2023-01-29T07:55:15;101996.16;;;1.47;84.63
19112;BME280;9688;51.906;8.376;2023-01-29T07:58:02;101996.16;;;1.47;84.54
19112;BME280;9688;51.906;8.376;2023-01-29T08:00:48;101993.66;;;1.51;84.58
19112;BME280;9688;51.906;8.376;2023-01-29T08:03:33;101980.69;;;1.53;84.66
19112;BME280;9688;51.906;8.376;2023-01-29T08:06:20;101965.94;;;1.55;84.09
19112;BME280;9688;51.906;8.376;2023-01-29T08:09:06;101957.22;;;1.53;84.87
19112;BME280;9688;51.906;8.376;2023-01-29T08:11:52;101961.59;;;1.54;84.97
19112;BME280;9688;51.906;8.376;2023-01-29T08:14:37;101956.47;;;1.60;84.81
19112;BME280;9688;51.906;8.376;2023-01-29T08:17:23;101962.50;;;1.56;84.85
19112;BME280;9688;51.906;8.376;2023-01-29T08:20:10;101965.13;;;1.58;84.76
19112;BME280;9688;51.906;8.376;2023-01-29T08:23:01;101945.19;;;1.58;85.05
19112;BME280;9688;51.906;8.376;2023-01-29T08:25:47;101942.59;;;1.60;84.61
19112;BME280;9688;51.906;8.376;2023-01-29T08:28:33;101934.00;;;1.64;84.26
19112;BME280;9688;51.906;8.376;2023-01-29T08:31:19;101941.88;;;1.68;84.92
19112;BME280;9688;51.906;8.376;2023-01-29T08:34:04;101936.72;;;1.71;84.53
19112;BME280;9688;51.906;8.376;2023-01-29T08:36:50;101933.34;;;1.75;84.47
19112;BME280;9688;51.906;8.376;2023-01-29T08:39:37;101922.97;;;1.78;84.44
19112;BME280;9688;51.906;8.376;2023-01-29T08:42:23;101920.38;;;1.80;84.36
19112;BME280;9688;51.906;8.376;2023-01-29T08:45:09;101924.69;;;1.78;84.03
19112;BME280;9688;51.906;8.376;2023-01-29T08:47:58;101926.50;;;1.82;84.51
19112;BME280;9688;51.906;8.376;2023-01-29T08:50:45;101928.22;;;1.82;84.05
19112;BME280;9688;51.906;8.376;2023-01-29T08:53:31;101939.41;;;1.76;84.20
19112;BME280;9688;51.906;8.376;2023-01-29T08:56:17;101936.72;;;1.70;84.29
19112;BME280;9688;51.906;8.376;2023-01-29T08:59:03;101934.09;;;1.70;84.32
19112;BME280;9688;51.906;8.376;2023-01-29T09:01:48;101926.34;;;1.74;84.15
19112;BME280;9688;51.906;8.376;2023-01-29T09:04:34;101918.56;;;1.76;83.92
19112;BME280;9688;51.906;8.376;2023-01-29T09:07:19;101917.75;;;1.78;83.78
19112;BME280;9688;51.906;8.376;2023-01-29T09:10:07;101903.03;;;1.81;83.98
19112;BME280;9688;51.906;8.376;2023-01-29T09:12:54;101900.38;;;1.79;83.61
19112;BME280;9688;51.906;8.376;2023-01-29T09:15:42;101901.34;;;1.86;83.88
19112;BME280;9688;51.906;8.376;2023-01-29T09:18:29;101901.50;;;1.93;84.05
19112;BME280;9688;51.906;8.376;2023-01-29T09:21:15;101899.00;;;1.99;83.75
19112;BME280;9688;51.906;8.376;2023-01-29T09:24:00;101904.38;;;2.09;83.02
19112;BME280;9688;51.906;8.376;2023-01-29T09:26:45;101909.75;;;2.18;83.08
19112;BME280;9688;51.906;8.376;2023-01-29T09:29:33;101902.91;;;2.25;82.78
19112;BME280;9688;51.906;8.376;2023-01-29T09:32:20;101897.03;;;2.38;83.02
19112;BME280;9688;51.906;8.376;2023-01-29T09:35:07;101887.53;;;2.41;82.53
19112;BME280;9688;51.906;8.376;2023-01-29T09:37:53;101897.19;;;2.47;82.27
19112;BME280;9688;51.906;8.376;2023-01-29T09:40:47;101897.28;;;2.55;81.86
19112;BME280;9688;51.906;8.376;2023-01-29T09:43:41;101905.31;;;2.67;82.06
19112;BME280;9688;51.906;8.376;2023-01-29T09:46:34;101902.75;;;2.70;82.34
19112;BME280;9688;51.906;8.376;2023-01-29T09:49:26;101907.94;;;2.68;81.53
19112;BME280;9688;51.906;8.376;2023-01-29T09:52:16;101902.75;;;2.70;81.69
19112;BME280;9688;51.906;8.376;2023-01-29T09:55:08;101892.41;;;2.78;81.29
19112;BME280;9688;51.906;8.376;2023-01-29T09:57:57;101896.91;;;2.89;81.25
19112;BME280;9688;51.906;8.376;2023-01-29T10:00:50;101889.19;;;2.97;81.35
19112;BME280;9688;51.906;8.376;2023-01-29T10:04:01;101891.88;;;3.03;81.35
19112;BME280;9688;51.906;8.376;2023-01-29T10:07:02;101891.16;;;3.15;81.50
19112;BME280;9688;51.906;8.376;2023-01-29T10:10:22;101893.81;;;3.17;81.24
19112;BME280;9688;51.906;8.376;2023-01-29T10:13:25;101881.72;;;3.25;81.21
19112;BME280;9688;51.906;8.376;2023-01-29T10:16:23;101886.16;;;3.33;80.39
19112;BME280;9688;51.906;8.376;2023-01-29T10:19:34;101879.25;;;3.39;80.23
19112;BME280;9688;51.906;8.376;2023-01-29T10:25:44;101860.97;;;3.39;80.47
19112;BME280;9688;51.906;8.376;2023-01-29T10:28:36;101859.19;;;3.38;80.67
19112;BME280;9688;51.906;8.376;2023-01-29T10:31:27;101852.28;;;3.43;80.80
19112;BME280;9688;51.906;8.376;2023-01-29T10:34:24;101843.59;;;3.45;80.43
19112;BME280;9688;51.906;8.376;2023-01-29T10:37:16;101834.00;;;3.46;80.64
19112;BME280;9688;51.906;8.376;2023-01-29T10:40:18;101837.50;;;3.45;79.88
19112;BME280;9688;51.906;8.376;2023-01-29T10:43:11;101829.59;;;3.39;80.56
19112;BME280;9688;51.906;8.376;2023-01-29T10:46:10;101833.91;;;3.33;80.58
19112;BME280;9688;51.906;8.376;2023-01-29T10:49:04;101823.41;;;3.32;81.25
19112;BME280;9688;51.906;8.376;2023-01-29T10:52:07;101813.91;;;3.40;80.44
19112;BME280;9688;51.906;8.376;2023-01-29T10:55:04;101817.50;;;3.48;80.62
19112;BME280;9688;51.906;8.376;2023-01-29T10:58:01;101810.59;;;3.55;79.88
19112;BME280;9688;51.906;8.376;2023-01-29T11:00:51;101801.03;;;3.58;79.81
19112;BME280;9688;51.906;8.376;2023-01-29T11:03:37;101801.09;;;3.63;80.01
19112;BME280;9688;51.906;8.376;2023-01-29T11:06:28;101788.91;;;3.67;79.66
19112;BME280;9688;51.906;8.376;2023-01-29T11:09:25;101786.25;;;3.62;80.79
19112;BME280;9688;51.906;8.376;2023-01-29T11:12:15;101779.25;;;3.60;79.61
19112;BME280;9688;51.906;8.376;2023-01-29T11:15:06;101781.88;;;3.60;80.20
19112;BME280;9688;51.906;8.376;2023-01-29T11:18:02;101781.91;;;3.61;80.77
19112;BME280;9688;51.906;8.376;2023-01-29T11:21:00;101783.66;;;3.65;80.13
19112;BME280;9688;51.906;8.376;2023-01-29T11:23:46;101776.78;;;3.75;79.56
19112;BME280;9688;51.906;8.376;2023-01-29T11:26:36;101773.28;;;3.76;80.33
19112;BME280;9688;51.906;8.376;2023-01-29T11:29:44;101765.44;;;3.73;79.43
19112;BME280;9688;51.906;8.376;2023-01-29T11:32:33;101761.94;;;3.74;79.89
19112;BME280;9688;51.906;8.376;2023-01-29T11:35:22;101761.09;;;3.75;79.71
19112;BME280;9688;51.906;8.376;2023-01-29T11:38:18;101754.94;;;3.70;79.95
19112;BME280;9688;51.906;8.376;2023-01-29T11:41:06;101752.31;;;3.68;80.71
19112;BME280;9688;51.906;8.376;2023-01-29T11:44:01;101753.19;;;3.67;79.54
19112;BME280;9688;51.906;8.376;2023-01-29T11:46:48;101746.22;;;3.69;80.61
19112;BME280;9688;51.906;8.376;2023-01-29T11:49:35;101737.53;;;3.72;80.17
19112;BME280;9688;51.906;8.376;2023-01-29T11:52:23;101747.91;;;3.66;79.48
19112;BME280;9688;51.906;8.376;2023-01-29T11:55:15;101740.06;;;3.66;79.78
19112;BME280;9688;51.906;8.376;2023-01-29T11:58:05;101727.00;;;3.64;79.99
19112;BME280;9688;51.906;8.376;2023-01-29T12:00:57;101722.69;;;3.68;79.89
19112;BME280;9688;51.906;8.376;2023-01-29T12:03:46;101707.00;;;3.69;79.71
19112;BME280;9688;51.906;8.376;2023-01-29T12:06:36;101693.97;;;3.72;79.57
19112;BME280;9688;51.906;8.376;2023-01-29T12:09:26;101701.81;;;3.72;79.20
19112;BME280;9688;51.906;8.376;2023-01-29T12:12:25;101688.69;;;3.71;80.14
19112;BME280;9688;51.906;8.376;2023-01-29T12:15:21;101690.47;;;3.73;80.12
19112;BME280;9688;51.906;8.376;2023-01-29T12:18:16;101683.53;;;3.77;79.40
19112;BME280;9688;51.906;8.376;2023-01-29T12:21:10;101681.78;;;3.74;79.79
19112;BME280;9688;51.906;8.376;2023-01-29T12:24:02;101680.88;;;3.72;80.18
19112;BME280;9688;51.906;8.376;2023-01-29T12:26:54;101678.31;;;3.77;79.23
19112;BME280;9688;51.906;8.376;2023-01-29T12:29:51;101659.19;;;3.86;80.06
19112;BME280;9688;51.906;8.376;2023-01-29T12:32:47;101652.19;;;3.88;79.26
19112;BME280;9688;51.906;8.376;2023-01-29T12:35:43;101656.53;;;3.84;79.70
19112;BME280;9688;51.906;8.376;2023-01-29T12:38:31;101662.66;;;3.88;80.01
19112;BME280;9688;51.906;8.376;2023-01-29T12:41:34;101645.25;;;3.91;79.20
19112;BME280;9688;51.906;8.376;2023-01-29T12:44:25;101635.69;;;3.95;79.59
19112;BME280;9688;51.906;8.376;2023-01-29T12:47:18;101634.81;;;3.99;79.28
19112;BME280;9688;51.906;8.376;2023-01-29T12:50:14;101633.97;;;4.03;79.55
19112;BME280;9688;51.906;8.376;2023-01-29T12:53:06;101633.09;;;4.02;79.26
19112;BME280;9688;51.906;8.376;2023-01-29T12:55:57;101633.13;;;4.06;78.16
19112;BME280;9688;51.906;8.376;2023-01-29T12:58:46;101640.09;;;4.05;79.58
19112;BME280;9688;51.906;8.376;2023-01-29T13:01:36;101627.00;;;4.03;79.21
19112;BME280;9688;51.906;8.376;2023-01-29T13:04:29;101624.34;;;3.97;79.34
19112;BME280;9688;51.906;8.376;2023-01-29T13:07:19;101618.25;;;3.97;79.45
19112;BME280;9688;51.906;8.376;2023-01-29T13:10:11;101614.75;;;3.95;78.63
19112;BME280;9688;51.906;8.376;2023-01-29T13:13:05;101606.03;;;3.94;79.59
19112;BME280;9688;51.906;8.376;2023-01-29T13:16:00;101614.72;;;3.93;78.38
19112;BME280;9688;51.906;8.376;2023-01-29T13:18:52;101616.50;;;3.91;78.98
19112;BME280;9688;51.906;8.376;2023-01-29T13:21:41;101617.34;;;3.92;78.81
19112;BME280;9688;51.906;8.376;2023-01-29T13:24:33;101612.13;;;3.92;79.24
19112;BME280;9688;51.906;8.376;2023-01-29T13:27:24;101615.63;;;3.91;79.00
19112;BME280;9688;51.906;8.376;2023-01-29T13:30:24;101604.28;;;3.89;79.22
19112;BME280;9688;51.906;8.376;2023-01-29T13:33:18;101601.63;;;3.90;78.76
19112;BME280;9688;51.906;8.376;2023-01-29T13:36:13;101602.53;;;3.91;77.98
19112;BME280;9688;51.906;8.376;2023-01-29T13:39:01;101594.69;;;3.89;78.85
19112;BME280;9688;51.906;8.376;2023-01-29T13:41:49;101599.88;;;3.85;79.23
19112;BME280;9688;51.906;8.376;2023-01-29T13:44:39;101590.28;;;3.82;79.05
19112;BME280;9688;51.906;8.376;2023-01-29T13:47:26;101579.81;;;3.82;78.48
19112;BME280;9688;51.906;8.376;2023-01-29T13:50:18;101578.03;;;3.76;78.87
19112;BME280;9688;51.906;8.376;2023-01-29T13:53:06;101578.88;;;3.71;78.90
19112;BME280;9688;51.906;8.376;2023-01-29T13:55:53;101578.88;;;3.74;78.64
19112;BME280;9688;51.906;8.376;2023-01-29T13:59:00;101573.66;;;3.66;79.45
19112;BME280;9688;51.906;8.376;2023-01-29T14:02:20;101571.03;;;3.63;78.80
19112;BME280;9688;51.906;8.376;2023-01-29T14:05:40;101565.78;;;3.63;79.49
19112;BME280;9688;51.906;8.376;2023-01-29T14:08:40;101571.88;;;3.68;78.28
19112;BME280;9688;51.906;8.376;2023-01-29T14:11:34;101571.06;;;3.72;79.30
19112;BME280;9688;51.906;8.376;2023-01-29T14:14:58;101560.59;;;3.69;79.18
19112;BME280;9688;51.906;8.376;2023-01-29T14:18:02;101560.56;;;3.63;79.41
19112;BME280;9688;51.906;8.376;2023-01-29T14:21:00;101549.25;;;3.69;78.75
19112;BME280;9688;51.906;8.376;2023-01-29T14:23:48;101548.38;;;3.70;79.64
19112;BME280;9688;51.906;8.376;2023-01-29T14:26:41;101556.19;;;3.68;78.69
19112;BME280;9688;51.906;8.376;2023-01-29T14:29:30;101557.09;;;3.67;78.70
19112;BME280;9688;51.906;8.376;2023-01-29T14:32:22;101550.97;;;3.64;79.05
19112;BME280;9688;51.906;8.376;2023-01-29T14:35:17;101560.50;;;3.57;78.97
19112;BME280;9688;51.906;8.376;2023-01-29T14:38:04;101556.13;;;3.53;79.15
19112;BME280;9688;51.906;8.376;2023-01-29T14:41:02;101550.03;;;3.49;79.23
19112;BME280;9688;51.906;8.376;2023-01-29T14:43:48;101557.84;;;3.48;79.04
19112;BME280;9688;51.906;8.376;2023-01-29T14:46:43;101563.94;;;3.44;79.36
19112;BME280;9688;51.906;8.376;2023-01-29T14:49:47;101563.94;;;3.45;79.62
19112;BME280;9688;51.906;8.376;2023-01-29T14:52:40;101556.97;;;3.49;79.36
19112;BME280;9688;51.906;8.376;2023-01-29T14:55:29;101559.63;;;3.53;79.25
19112;BME280;9688;51.906;8.376;2023-01-29T14:58:23;101548.28;;;3.54;79.54
19112;BME280;9688;51.906;8.376;2023-01-29T15:01:19;101552.66;;;3.54;79.14
19112;BME280;9688;51.906;8.376;2023-01-29T15:04:13;101547.41;;;3.54;78.87
19112;BME280;9688;51.906;8.376;2023-01-29T15:07:02;101547.44;;;3.57;78.58
19112;BME280;9688;51.906;8.376;2023-01-29T15:09:54;101536.13;;;3.60;79.15
19112;BME280;9688;51.906;8.376;2023-01-29T15:12:48;101543.97;;;3.60;78.68
19112;BME280;9688;51.906;8.376;2023-01-29T15:15:44;101533.53;;;3.64;79.69
19112;BME280;9688;51.906;8.376;2023-01-29T15:18:37;101540.50;;;3.65;78.45
19112;BME280;9688;51.906;8.376;2023-01-29T15:21:24;101529.16;;;3.62;78.60